Barquisimeto, Barquisimeto Jacinto Lara International Airport (SVBM)

NameBarquisimeto Jacinto Lara International Airport
CityBarquisimeto
CountryVenezuela
ICAOSVBM
IATABRM
Altitude622 m
CoordinatesGoogle Map
Live Air TrafficLiveATC.net
METARSVBM 202205Z 09006KT 9999 FEW016 BKN300 29/20 Q1013
2019-08-20 22:05:00 Wind: East (90°) 3.09 m/s - Visibility: > 10000 m - Temperature: 29 °C - Dew point: 20 °C - Humidity: 58.3% - Pressure: 1013 hPa

Sorry, no flights used the airport in this database.